Time;durP1;ratioP1;P1;durP2;ratioP2;P2;SDS_P1;SDS_P2;PMS_P1;PMS_P2;Temp;Humidity;BMP_temperature;BMP_pressure;BME280_temperature;BME280_humidity;BME280_pressure;Samples;Min_cycle;Max_cycle;Signal;HPM_P1;HPM_P2
2022/10/16 00:00:22;;;;;;;5.57;3.43;;;;;;;12.38;100.00;100909.06;5254132;28;20029;-69
2022/10/16 00:02:54;;;;;;;8.53;3.40;;;;;;;12.40;100.00;100922.09;5252055;28;20032;-69
2022/10/16 00:05:25;;;;;;;8.33;3.37;;;;;;;12.36;100.00;100918.00;5252545;28;20555;-69
2022/10/16 00:07:56;;;;;;;6.63;3.20;;;;;;;12.29;100.00;100912.28;5253741;28;20127;-70
2022/10/16 00:10:28;;;;;;;6.57;3.87;;;;;;;12.40;100.00;100904.56;5256546;28;20033;-69
2022/10/16 00:13:00;;;;;;;8.13;3.27;;;;;;;12.30;100.00;100890.34;5255728;28;20025;-69
2022/10/16 00:15:36;;;;;;;11.97;3.00;;;;;;;12.28;100.00;100921.97;5257902;28;20029;-70
2022/10/16 00:18:07;;;;;;;9.37;3.73;;;;;;;12.24;100.00;100917.84;5255698;28;20091;-69
2022/10/16 00:20:38;;;;;;;5.33;2.67;;;;;;;12.28;100.00;100914.09;5256819;28;20076;-69
2022/10/16 00:23:10;;;;;;;6.90;2.80;;;;;;;12.18;100.00;100905.16;5256647;28;21463;-69
2022/10/16 00:25:41;;;;;;;7.23;3.60;;;;;;;12.10;100.00;100893.34;5257581;28;20028;-70
2022/10/16 00:28:12;;;;;;;7.63;2.87;;;;;;;12.13;100.00;100907.22;5256717;28;20480;-70
2022/10/16 00:30:44;;;;;;;6.57;3.13;;;;;;;12.27;100.00;100914.19;5257193;28;20025;-69
2022/10/16 00:33:15;;;;;;;5.87;2.83;;;;;;;12.13;100.00;100910.69;5254867;28;20021;-70
2022/10/16 00:35:47;;;;;;;5.57;2.50;;;;;;;12.16;100.00;100913.13;5256277;28;20025;-69
2022/10/16 00:38:18;;;;;;;6.00;2.37;;;;;;;12.16;100.00;100913.13;5258035;28;20087;-69
2022/10/16 00:40:49;;;;;;;6.43;2.97;;;;;;;11.97;100.00;100908.19;5257015;28;20028;-69
2022/10/16 00:43:43;;;;;;;13.90;2.70;;;;;;;12.18;100.00;100926.97;5256381;28;20027;-69
2022/10/16 00:46:17;;;;;;;6.38;3.03;;;;;;;12.08;100.00;100926.69;5257408;28;20037;-69
2022/10/16 00:49:03;;;;;;;6.73;3.10;;;;;;;12.13;100.00;100917.72;5256530;28;20074;-69
2022/10/16 00:51:44;;;;;;;5.17;2.83;;;;;;;12.14;100.00;100924.66;5256050;28;20021;-69
2022/10/16 00:54:25;;;;;;;5.40;2.30;;;;;;;12.14;100.00;100924.66;5257229;28;20453;-69
2022/10/16 00:57:01;;;;;;;4.33;2.57;;;;;;;12.07;100.00;100911.91;5256736;28;20664;-70
2022/10/16 00:59:38;;;;;;;5.33;2.43;;;;;;;11.99;100.00;100911.53;5257128;28;20513;-69
2022/10/16 01:02:12;;;;;;;4.03;2.40;;;;;;;11.97;100.00;100918.69;5254922;28;20132;-69
2022/10/16 01:04:50;;;;;;;5.67;2.67;;;;;;;12.00;100.00;100915.03;5254544;28;20045;-69
2022/10/16 01:10:46;;;;;;;4.73;2.53;;;;;;;12.02;100.00;100916.63;5274102;28;20059;-68
2022/10/16 01:13:32;;;;;;;10.57;3.03;;;;;;;12.00;100.00;100912.41;5276484;28;20032;-68
2022/10/16 01:16:18;;;;;;;6.07;2.50;;;;;;;11.83;100.00;100916.97;5275524;28;20540;-68
2022/10/16 01:18:57;;;;;;;8.03;2.90;;;;;;;11.92;100.00;100915.53;5275278;28;20029;-68
2022/10/16 01:21:34;;;;;;;9.43;2.60;;;;;;;11.84;100.00;100909.00;5274687;28;20371;-68
2022/10/16 01:24:30;;;;;;;5.63;2.53;;;;;;;11.98;100.00;100923.00;5276643;28;20106;-69
2022/10/16 01:27:06;;;;;;;5.03;3.00;;;;;;;11.96;100.00;100924.88;5255241;28;20779;-69
2022/10/16 01:29:45;;;;;;;4.73;2.30;;;;;;;11.94;100.00;100919.72;5259007;28;20100;-68
2022/10/16 01:32:30;;;;;;;5.90;2.77;;;;;;;11.77;100.00;100928.69;5275377;28;20600;-69
2022/10/16 01:35:11;;;;;;;4.83;2.60;;;;;;;11.81;100.00;100919.69;5276027;28;20583;-69
2022/10/16 01:38:00;;;;;;;6.17;2.97;;;;;;;11.88;100.00;100914.88;5273036;28;20563;-70
2022/10/16 01:40:35;;;;;;;5.07;2.97;;;;;;;11.82;100.00;100904.75;5275189;28;20477;-69
2022/10/16 01:43:15;;;;;;;6.70;2.93;;;;;;;11.89;100.00;100926.19;5258360;28;20093;-69
2022/10/16 01:45:47;;;;;;;5.63;2.63;;;;;;;11.90;100.00;100927.91;5276154;28;20028;-68
2022/10/16 01:48:20;;;;;;;4.27;2.20;;;;;;;11.95;100.00;100925.81;5258082;28;20031;-69
2022/10/16 01:50:59;;;;;;;3.50;2.10;;;;;;;11.90;100.00;100902.50;5275900;28;20024;-69
2022/10/16 01:53:32;;;;;;;5.57;2.40;;;;;;;11.72;100.00;100904.53;5276136;28;20043;-68
2022/10/16 01:56:08;;;;;;;4.97;2.30;;;;;;;11.86;100.00;100906.25;5276134;28;20020;-69
2022/10/16 01:58:47;;;;;;;5.23;2.40;;;;;;;11.84;100.00;100919.47;5276954;28;20036;-71
2022/10/16 02:01:22;;;;;;;4.50;2.40;;;;;;;11.75;100.00;100912.19;5276301;28;20031;-69
2022/10/16 02:03:59;;;;;;;4.60;2.80;;;;;;;11.77;100.00;100912.09;5275330;28;20028;-70
2022/10/16 02:06:30;;;;;;;5.27;2.40;;;;;;;11.89;100.00;100915.69;5276032;28;20033;-70
2022/10/16 02:09:01;;;;;;;4.63;2.00;;;;;;;11.86;100.00;100922.84;5276467;28;21054;-69
2022/10/16 02:11:33;;;;;;;8.70;2.57;;;;;;;11.91;100.00;100924.31;5276409;28;20051;-69
2022/10/16 02:14:06;;;;;;;3.30;1.97;;;;;;;11.89;100.00;100921.81;5275369;28;20017;-69
2022/10/16 02:16:45;;;;;;;5.10;2.10;;;;;;;11.88;100.00;100924.53;5276371;28;20039;-68
2022/10/16 02:19:20;;;;;;;4.53;1.80;;;;;;;11.87;100.00;100928.94;5275011;28;20024;-69
2022/10/16 02:21:56;;;;;;;4.23;1.90;;;;;;;11.84;100.00;100924.72;5276124;28;20033;-68
2022/10/16 02:24:32;;;;;;;4.43;2.10;;;;;;;11.79;100.00;100908.44;5258492;28;20059;-69
2022/10/16 02:27:15;;;;;;;4.73;2.40;;;;;;;11.82;100.00;100921.34;5258082;28;20032;-69
2022/10/16 02:29:52;;;;;;;3.17;1.80;;;;;;;11.85;100.00;100929.03;5258327;28;20035;-70
2022/10/16 02:32:27;;;;;;;3.60;2.10;;;;;;;11.82;100.00;100918.72;5274928;28;20036;-69
2022/10/16 02:35:00;;;;;;;5.40;2.10;;;;;;;11.67;100.00;100911.84;5275683;28;20058;-69
2022/10/16 02:37:32;;;;;;;4.37;2.20;;;;;;;11.66;100.00;100920.66;5275784;28;20032;-68
2022/10/16 02:40:05;;;;;;;5.67;1.90;;;;;;;11.73;100.00;100930.66;5275669;28;20037;-69
2022/10/16 02:42:38;;;;;;;3.90;1.60;;;;;;;11.75;100.00;100930.56;5276330;28;20115;-69
2022/10/16 02:45:10;;;;;;;3.23;2.27;;;;;;;11.79;100.00;100931.19;5275272;28;20031;-68
2022/10/16 02:47:42;;;;;;;9.67;2.63;;;;;;;11.64;100.00;100923.38;5275727;28;20024;-70
2022/10/16 02:50:13;;;;;;;5.40;2.03;;;;;;;11.75;100.00;100925.31;5275686;28;20056;-69
2022/10/16 02:52:45;;;;;;;2.90;1.70;;;;;;;11.60;100.00;100899.13;5276000;28;20059;-68
2022/10/16 02:55:16;;;;;;;3.07;1.80;;;;;;;11.56;100.00;100923.00;5257896;28;20094;-68
2022/10/16 02:57:48;;;;;;;4.33;1.77;;;;;;;11.55;100.00;100906.44;5275141;28;20103;-69
2022/10/16 03:00:20;;;;;;;6.10;1.70;;;;;;;11.67;100.00;100911.84;5258141;28;20041;-69
2022/10/16 03:02:51;;;;;;;3.47;1.70;;;;;;;11.62;100.00;100915.59;5274563;28;20036;-70
2022/10/16 03:05:22;;;;;;;4.23;1.97;;;;;;;11.54;100.00;100933.59;5275837;28;20024;-68
2022/10/16 03:07:54;;;;;;;6.87;2.03;;;;;;;11.61;100.00;100927.03;5275900;28;20032;-68
2022/10/16 03:10:25;;;;;;;3.77;1.93;;;;;;;11.62;100.00;100936.56;5275052;28;20422;-68
2022/10/16 03:12:56;;;;;;;4.13;1.90;;;;;;;11.65;100.00;100924.22;5257656;28;20027;-68
2022/10/16 03:15:28;;;;;;;5.80;2.23;;;;;;;11.61;100.00;100928.81;5275275;28;20072;-68
2022/10/16 03:18:00;;;;;;;4.50;1.83;;;;;;;11.58;100.00;100924.59;5273873;28;20112;-70
2022/10/16 03:20:31;;;;;;;7.87;1.90;;;;;;;11.53;100.00;100938.94;5275282;28;20036;-68
2022/10/16 03:23:03;;;;;;;3.23;1.77;;;;;;;11.51;100.00;100941.66;5275062;28;20505;-68
2022/10/16 03:25:34;;;;;;;4.73;1.40;;;;;;;11.57;100.00;100943.88;5275778;28;20075;-69
2022/10/16 03:28:05;;;;;;;7.10;2.47;;;;;;;11.62;100.00;100946.25;5275543;28;20597;-70
2022/10/16 03:30:39;;;;;;;2.43;1.60;;;;;;;11.53;100.00;100945.03;5275620;28;20055;-69
2022/10/16 03:33:11;;;;;;;3.80;1.60;;;;;;;11.58;100.00;100955.22;5273806;28;20421;-71
2022/10/16 03:35:42;;;;;;;6.57;1.80;;;;;;;11.56;100.00;100952.72;5275067;28;20035;-72
2022/10/16 03:38:13;;;;;;;4.67;1.90;;;;;;;11.52;100.00;100951.19;5275456;28;20039;-70
2022/10/16 03:40:44;;;;;;;5.50;2.13;;;;;;;11.54;100.00;100949.34;5274884;28;20024;-69
2022/10/16 03:43:16;;;;;;;7.47;1.63;;;;;;;11.51;100.00;100944.28;5275499;28;20040;-70
2022/10/16 03:45:47;;;;;;;17.60;2.07;;;;;;;11.57;100.00;100964.06;5277530;28;20035;-70
2022/10/16 03:48:19;;;;;;;6.37;1.53;;;;;;;11.60;100.00;100972.56;5259968;28;20033;-69
2022/10/16 03:50:51;;;;;;;6.43;1.70;;;;;;;11.58;100.00;100969.19;5279317;28;20068;-70
2022/10/16 03:53:22;;;;;;;3.47;1.40;;;;;;;11.59;100.00;100967.44;5278264;28;20028;-69
2022/10/16 03:55:54;;;;;;;5.13;1.60;;;;;;;11.58;100.00;100970.97;5278003;28;20360;-69
2022/10/16 03:58:25;;;;;;;4.70;1.13;;;;;;;11.47;100.00;100963.75;5260537;28;20047;-68
2022/10/16 04:00:56;;;;;;;3.10;1.70;;;;;;;11.57;100.00;100972.75;5277947;28;20032;-68
2022/10/16 04:03:27;;;;;;;4.33;1.63;;;;;;;11.53;100.00;100973.88;5259287;28;20024;-69
2022/10/16 04:05:59;;;;;;;6.10;1.60;;;;;;;11.56;100.00;100962.34;5277667;28;20421;-70
2022/10/16 04:08:30;;;;;;;4.90;1.90;;;;;;;11.59;100.00;100970.06;5278190;28;20036;-70
2022/10/16 04:11:03;;;;;;;3.80;2.00;;;;;;;11.55;100.00;100972.03;5284719;28;20030;-68
2022/10/16 04:13:34;;;;;;;5.47;2.50;;;;;;;11.58;100.00;100982.31;5278834;28;20029;-69
2022/10/16 04:16:05;;;;;;;5.00;2.13;;;;;;;11.50;100.00;100980.16;5277680;28;20277;-69
2022/10/16 04:18:37;;;;;;;3.67;2.30;;;;;;;11.54;100.00;100969.47;5286591;28;20042;-68
2022/10/16 04:21:08;;;;;;;4.93;2.53;;;;;;;11.56;100.00;100978.94;5281892;28;20048;-68
2022/10/16 04:23:39;;;;;;;7.17;2.60;;;;;;;11.58;100.00;100982.31;5289765;28;20502;-69
2022/10/16 04:26:11;;;;;;;4.87;2.03;;;;;;;11.59;100.00;100972.69;5264181;28;20031;-69
2022/10/16 04:28:43;;;;;;;4.63;1.93;;;;;;;11.57;100.00;100979.78;5271310;28;20020;-69
2022/10/16 04:31:14;;;;;;;5.40;2.00;;;;;;;11.57;100.00;100975.38;5266193;28;20039;-68
2022/10/16 04:33:45;;;;;;;4.37;2.40;;;;;;;11.58;100.00;100969.19;5280859;28;20024;-69
2022/10/16 04:36:17;;;;;;;4.73;1.83;;;;;;;11.57;100.00;100980.63;5280177;28;20033;-69
2022/10/16 04:38:48;;;;;;;3.80;1.90;;;;;;;11.59;100.00;100994.47;5267971;28;20052;-70
2022/10/16 04:41:19;;;;;;;5.30;2.03;;;;;;;11.50;100.00;100987.19;5281838;28;20074;-69
2022/10/16 04:43:51;;;;;;;2.97;1.80;;;;;;;11.54;100.00;100985.19;5284423;28;20451;-69
2022/10/16 04:46:22;;;;;;;5.33;2.10;;;;;;;11.57;100.00;101001.59;5282875;28;20143;-68
2022/10/16 04:48:53;;;;;;;6.70;2.33;;;;;;;11.57;100.00;101012.09;5275880;28;20078;-71
2022/10/16 04:51:25;;;;;;;5.07;2.07;;;;;;;11.47;100.00;101008.34;5269793;28;20048;-69
2022/10/16 04:53:57;;;;;;;5.23;2.23;;;;;;;11.56;100.00;101007.78;5259548;28;20036;-68
2022/10/16 04:56:28;;;;;;;7.50;2.00;;;;;;;11.54;100.00;101014.91;5281503;28;20029;-68
2022/10/16 04:58:59;;;;;;;2.50;1.83;;;;;;;11.50;100.00;101003.75;5269084;28;20035;-68
2022/10/16 05:01:30;;;;;;;6.30;2.20;;;;;;;11.52;100.00;101013.34;5282514;28;20036;-68
2022/10/16 05:04:02;;;;;;;3.23;1.93;;;;;;;11.55;100.00;101024.47;5276869;28;20028;-69
2022/10/16 05:06:33;;;;;;;8.83;2.30;;;;;;;11.56;100.00;101036.66;5277571;28;20466;-68
2022/10/16 05:09:05;;;;;;;7.00;2.03;;;;;;;11.51;100.00;101038.72;5276805;28;20155;-69
2022/10/16 05:11:36;;;;;;;5.27;2.00;;;;;;;11.55;100.00;101042.84;5276871;28;20108;-69
2022/10/16 05:14:08;;;;;;;4.83;2.37;;;;;;;11.52;100.00;101045.63;5258230;28;20020;-69
2022/10/16 05:16:39;;;;;;;5.30;2.00;;;;;;;11.50;100.00;101040.47;5275923;28;20028;-68
2022/10/16 05:19:10;;;;;;;3.80;2.00;;;;;;;11.53;100.00;101039.47;5275985;28;20020;-69
2022/10/16 05:21:42;;;;;;;8.90;2.43;;;;;;;11.52;100.00;101042.19;5276506;28;20021;-68
2022/10/16 05:24:13;;;;;;;5.13;1.97;;;;;;;11.48;100.00;101033.66;5275942;28;20040;-67
2022/10/16 05:26:45;;;;;;;3.07;1.80;;;;;;;11.47;100.00;101037.19;5257333;28;20034;-69
2022/10/16 05:29:16;;;;;;;3.67;1.97;;;;;;;11.46;100.00;101046.88;5276831;28;20064;-70
2022/10/16 05:31:53;;;;;;;5.83;2.37;;;;;;;11.47;100.00;101047.69;5274684;28;20036;-70
2022/10/16 05:34:24;;;;;;;6.70;2.67;;;;;;;11.46;100.00;101057.34;5255129;28;20040;-69
2022/10/16 05:36:56;;;;;;;5.60;2.43;;;;;;;11.38;100.00;101044.69;5238515;28;20071;-70
2022/10/16 05:39:27;;;;;;;6.77;1.93;;;;;;;11.44;100.00;101058.38;5275095;28;20429;-70
2022/10/16 05:41:58;;;;;;;5.60;2.10;;;;;;;11.39;100.00;101058.66;5274295;28;20113;-69
2022/10/16 05:44:30;;;;;;;7.43;2.20;;;;;;;11.42;100.00;101070.72;5275101;28;20055;-70
2022/10/16 05:47:01;;;;;;;6.63;2.20;;;;;;;11.40;100.00;101072.63;5273576;28;20027;-70
2022/10/16 05:49:33;;;;;;;4.60;2.20;;;;;;;11.42;100.00;101086.47;5275341;28;20023;-70
2022/10/16 05:52:04;;;;;;;7.53;3.57;;;;;;;11.32;100.00;101080.94;5257261;28;20060;-70
2022/10/16 05:54:35;;;;;;;6.00;2.30;;;;;;;11.29;100.00;101074.09;5274550;28;20029;-69
2022/10/16 05:57:06;;;;;;;6.67;2.10;;;;;;;11.37;100.00;101090.22;5256003;28;20039;-70
2022/10/16 05:59:38;;;;;;;4.07;1.97;;;;;;;11.36;100.00;101092.94;5256330;28;20024;-71
2022/10/16 06:02:13;;;;;;;7.77;2.93;;;;;;;11.36;100.00;101092.94;5273021;28;20111;-71
2022/10/16 06:04:44;;;;;;;7.60;2.63;;;;;;;11.29;100.00;101087.22;5274054;28;20031;-70
2022/10/16 06:07:16;;;;;;;5.63;2.43;;;;;;;11.36;100.00;101112.13;5274170;28;20266;-70
2022/10/16 06:09:50;;;;;;;9.07;2.47;;;;;;;11.38;100.00;101117.25;5255671;28;105042;-70
2022/10/16 06:12:21;;;;;;;7.27;2.53;;;;;;;11.33;100.00;101114.91;5275686;28;20028;-70
2022/10/16 06:14:53;;;;;;;9.33;3.03;;;;;;;11.37;100.00;101124.31;5275729;28;20082;-70
2022/10/16 06:17:24;;;;;;;7.47;2.57;;;;;;;11.34;100.00;101121.88;5275591;28;20021;-70
2022/10/16 06:19:55;;;;;;;6.03;2.50;;;;;;;11.33;100.00;101140.28;5276082;28;20108;-70
2022/10/16 06:22:26;;;;;;;7.87;2.60;;;;;;;11.30;100.00;101135.22;5276008;28;20459;-71
2022/10/16 06:24:58;;;;;;;5.60;2.57;;;;;;;11.36;100.00;101146.19;5275558;28;20031;-72
2022/10/16 06:27:29;;;;;;;5.23;2.40;;;;;;;11.33;100.00;101142.91;5275367;28;20043;-71
2022/10/16 06:30:00;;;;;;;6.60;2.23;;;;;;;11.22;100.00;101143.56;5275409;28;20027;-69
2022/10/16 06:32:32;;;;;;;3.93;2.57;;;;;;;11.34;100.00;101149.88;5274258;28;20033;-70
2022/10/16 06:35:03;;;;;;;7.40;2.70;;;;;;;11.33;100.00;101151.63;5275404;28;20017;-71
2022/10/16 06:37:34;;;;;;;6.47;2.43;;;;;;;11.32;100.00;101152.56;5275680;28;20107;-71
2022/10/16 06:40:06;;;;;;;5.33;2.27;;;;;;;11.38;100.00;101165.31;5274958;28;20020;-70
2022/10/16 06:42:38;;;;;;;7.87;2.30;;;;;;;11.35;100.00;101159.41;5275774;28;20108;-71
2022/10/16 06:45:09;;;;;;;5.33;2.30;;;;;;;11.37;100.00;101162.78;5256809;28;20024;-71
2022/10/16 06:47:40;;;;;;;6.33;2.60;;;;;;;11.36;100.00;101172.44;5274768;28;20104;-71
2022/10/16 06:50:12;;;;;;;5.97;3.23;;;;;;;11.40;100.00;101177.53;5275860;28;20024;-71
2022/10/16 06:52:43;;;;;;;8.33;3.00;;;;;;;11.34;100.00;101182.19;5275030;28;20036;-71
2022/10/16 06:55:15;;;;;;;6.63;2.40;;;;;;;11.37;100.00;101187.25;5275457;28;20033;-71
2022/10/16 06:57:49;;;;;;;6.97;2.60;;;;;;;11.33;100.00;101177.84;5275268;28;20027;-71
2022/10/16 07:00:20;;;;;;;7.38;2.67;;;;;;;11.45;100.00;101192.03;5275944;28;20037;-71
2022/10/16 07:02:52;;;;;;;6.23;2.37;;;;;;;11.46;100.00;101192.88;5274659;28;20415;-71
2022/10/16 07:05:23;;;;;;;7.07;2.37;;;;;;;11.47;100.00;101197.19;5275691;28;20047;-72
2022/10/16 07:07:54;;;;;;;8.20;2.30;;;;;;;11.54;100.00;101200.28;5275533;28;20065;-71
2022/10/16 07:10:25;;;;;;;7.20;2.23;;;;;;;11.56;100.00;101208.91;5275395;28;20071;-71
2022/10/16 07:12:57;;;;;;;5.90;2.47;;;;;;;11.56;100.00;101212.41;5275517;28;20036;-71
2022/10/16 07:15:28;;;;;;;6.07;2.13;;;;;;;11.57;100.00;101208.81;5275541;28;20039;-71
2022/10/16 07:17:59;;;;;;;7.40;2.23;;;;;;;11.55;100.00;101209.88;5274244;28;20036;-71
2022/10/16 07:20:31;;;;;;;7.03;2.37;;;;;;;11.65;100.00;101218.88;5277755;28;20032;-71
2022/10/16 07:23:02;;;;;;;4.70;1.57;;;;;;;11.76;100.00;101227.91;5261300;28;20032;-70
2022/10/16 07:25:33;;;;;;;5.67;2.00;;;;;;;11.77;100.00;101219.94;5280374;28;20116;-72
2022/10/16 07:28:04;;;;;;;6.13;2.27;;;;;;;11.86;100.00;101226.44;5279358;28;20029;-72
2022/10/16 07:30:37;;;;;;;8.13;2.40;;;;;;;11.97;100.00;101237.13;5279609;28;20108;-72
2022/10/16 07:33:08;;;;;;;8.50;2.17;;;;;;;12.04;100.00;101245.50;5278126;28;20034;-71
2022/10/16 07:35:48;;;;;;;3.93;1.90;;;;;;;12.03;100.00;101238.53;5280052;28;20430;-72
2022/10/16 07:38:21;;;;;;;7.40;1.93;;;;;;;12.14;100.00;101261.56;5279430;28;20376;-72
2022/10/16 07:40:57;;;;;;;5.47;1.80;;;;;;;12.22;100.00;101259.31;5279437;28;20028;-72
2022/10/16 07:43:29;;;;;;;6.43;2.30;;;;;;;12.25;100.00;101267.97;5278863;28;20028;-70
2022/10/16 07:46:01;;;;;;;4.70;2.03;;;;;;;12.31;100.00;101268.44;5278364;28;20024;-71
2022/10/16 07:48:34;;;;;;;4.87;1.80;;;;;;;12.42;100.00;101274.81;5278199;28;20025;-70
2022/10/16 07:51:07;;;;;;;5.50;1.60;;;;;;;12.46;100.00;101277.16;5278634;28;20528;-72
2022/10/16 07:53:38;;;;;;;4.70;2.03;;;;;;;12.62;100.00;101275.38;5279088;28;20024;-70
2022/10/16 07:56:10;;;;;;;8.97;2.10;;;;;;;12.73;100.00;101293.94;5278166;28;20033;-71
2022/10/16 07:58:41;;;;;;;6.10;3.20;;;;;;;12.81;100.00;101285.59;5279129;28;20024;-71
2022/10/16 08:01:14;;;;;;;4.37;1.63;;;;;;;12.88;100.00;101283.41;5277623;28;20024;-73
2022/10/16 08:03:50;;;;;;;7.23;2.73;;;;;;;13.04;100.00;101301.69;5256367;28;20029;-72
2022/10/16 08:06:22;;;;;;;10.27;2.67;;;;;;;13.28;100.00;101299.28;5260043;28;20035;-72
2022/10/16 08:08:57;;;;;;;8.33;1.73;;;;;;;13.56;100.00;101301.97;5277302;28;20480;-72
2022/10/16 08:11:28;;;;;;;4.15;1.88;;;;;;;13.87;100.00;101309.63;5258403;28;20111;-72
2022/10/16 08:13:59;;;;;;;3.70;1.67;;;;;;;14.06;100.00;101305.75;5256469;28;20096;-71
2022/10/16 08:16:30;;;;;;;5.73;1.87;;;;;;;14.21;100.00;101314.38;5256792;28;20458;-71
2022/10/16 08:19:02;;;;;;;3.90;1.90;;;;;;;14.32;100.00;101314.50;5257627;28;20028;-72
2022/10/16 08:21:33;;;;;;;6.87;1.53;;;;;;;14.59;100.00;101328.53;5262984;28;20029;-72
2022/10/16 08:24:05;;;;;;;2.63;1.47;;;;;;;14.51;100.00;101321.13;5281221;28;20025;-72
2022/10/16 08:26:36;;;;;;;4.80;2.00;;;;;;;14.37;100.00;101322.09;5278504;28;20093;-72
2022/10/16 08:29:07;;;;;;;5.60;1.93;;;;;;;14.25;100.00;101322.00;5277996;28;20077;-72
2022/10/16 08:31:38;;;;;;;5.67;1.70;;;;;;;14.33;100.00;101331.16;5276195;28;20035;-71
2022/10/16 08:34:10;;;;;;;8.00;2.33;;;;;;;14.26;100.00;101330.75;5278333;28;20035;-70
2022/10/16 08:36:41;;;;;;;4.20;1.40;;;;;;;14.28;100.00;101328.81;5278647;28;20035;-69
2022/10/16 08:39:12;;;;;;;9.20;2.27;;;;;;;14.18;100.00;101328.63;5277123;28;20035;-71
2022/10/16 08:42:02;;;;;;;4.83;1.60;;;;;;;14.50;100.00;101351.91;5278122;28;20035;-71
2022/10/16 08:44:45;;;;;;;7.17;1.60;;;;;;;14.52;100.00;101354.47;5278028;28;20068;-69
2022/10/16 08:47:29;;;;;;;6.33;1.73;;;;;;;15.03;100.00;101357.19;5259383;28;20028;-70
2022/10/16 08:50:09;;;;;;;8.75;1.70;;;;;;;16.73;100.00;101365.91;5278288;28;20107;-69
2022/10/16 08:52:43;;;;;;;4.73;1.40;;;;;;;17.76;100.00;101372.84;5277160;28;20028;-69
2022/10/16 08:55:34;;;;;;;;;;;;;;;19.63;100.00;101372.06;5260192;28;20103;-71
2022/10/16 08:58:16;;;;;;;4.70;1.30;;;;;;;20.43;100.00;101378.13;5255883;28;19923;-71
2022/10/16 09:00:55;;;;;;;4.22;1.77;;;;;;;20.99;95.10;101362.25;5277269;28;20562;-70
2022/10/16 09:03:49;;;;;;;4.95;1.00;;;;;;;21.94;88.36;101376.16;5276349;28;20035;-70
2022/10/16 09:06:35;;;;;;;5.00;2.03;;;;;;;22.71;88.00;101377.34;5276337;28;20367;-70
2022/10/16 09:09:12;;;;;;;5.97;1.60;;;;;;;22.99;63.76;101375.47;5276686;28;20121;-70
2022/10/16 09:11:56;;;;;;;5.78;1.90;;;;;;;23.78;60.93;101382.28;5273717;28;20089;-71
2022/10/16 09:14:37;;;;;;;6.25;1.58;;;;;;;24.48;58.42;101389.94;5276901;28;20510;-71
2022/10/16 09:17:27;;;;;;;5.68;1.48;;;;;;;25.11;60.46;101386.53;5275930;28;20028;-72
2022/10/16 09:20:27;;;;;;;3.78;1.40;;;;;;;25.53;54.36;101397.81;5259070;28;20547;-71
2022/10/16 09:23:04;;;;;;;7.55;2.85;;;;;;;26.25;51.81;101399.44;5262424;28;20037;-72
2022/10/16 09:25:38;;;;;;;5.35;1.80;;;;;;;25.90;47.92;101405.28;5277276;28;20023;-70
2022/10/16 09:28:10;;;;;;;5.03;1.48;;;;;;;26.07;47.99;101411.34;5276586;28;20028;-73
2022/10/16 09:30:41;;;;;;;4.80;1.30;;;;;;;26.32;45.54;101409.22;5277430;28;20105;-72
2022/10/16 09:33:14;;;;;;;3.53;1.30;;;;;;;26.66;46.73;101406.22;5275399;28;20455;-73
2022/10/16 09:35:52;;;;;;;6.07;1.55;;;;;;;27.04;43.25;101403.41;5258963;28;20793;-72
2022/10/16 09:38:30;;;;;;;6.60;1.30;;;;;;;27.15;43.90;101406.63;5269634;28;20035;-72
2022/10/16 09:41:22;;;;;;;5.30;1.55;;;;;;;28.43;43.96;101406.97;5273171;28;20036;-72
2022/10/16 09:43:59;;;;;;;6.63;1.60;;;;;;;27.15;42.53;101412.00;5255935;28;20029;-71
2022/10/16 09:46:35;;;;;;;5.30;1.92;;;;;;;26.65;43.01;101400.00;5275830;28;20039;-72
2022/10/16 09:49:25;;;;;;;10.93;2.25;;;;;;;26.10;46.49;101403.75;5254950;28;20078;-72
2022/10/16 09:52:11;;;;;;;7.68;2.30;;;;;;;25.50;46.08;101412.41;5240955;28;20482;-71
2022/10/16 09:54:54;;;;;;;8.23;1.90;;;;;;;24.34;47.87;101416.41;5263654;28;20479;-73
2022/10/16 09:57:27;;;;;;;8.55;2.05;;;;;;;23.43;48.21;101418.03;5273724;28;20024;-72
2022/10/16 09:59:58;;;;;;;8.18;2.22;;;;;;;23.54;49.28;101413.38;5274771;28;20449;-72
2022/10/16 10:02:39;;;;;;;6.40;1.63;;;;;;;23.44;50.16;101411.66;5274459;28;20024;-72
2022/10/16 10:05:21;;;;;;;8.60;2.20;;;;;;;23.16;52.24;101413.75;5275341;28;20506;-71
2022/10/16 10:08:05;;;;;;;10.73;2.45;;;;;;;22.45;53.60;101409.38;5254791;28;20032;-71
2022/10/16 10:10:40;;;;;;;;;;;;;;;23.07;53.80;101420.91;5257112;28;20036;-72
2022/10/16 10:13:23;;;;;;;7.85;1.85;;;;;;;21.91;55.99;101419.16;5275333;28;19912;-72
2022/10/16 10:15:55;;;;;;;8.32;2.22;;;;;;;21.79;54.05;101415.88;5269398;28;20031;-71
2022/10/16 10:18:26;;;;;;;10.52;1.98;;;;;;;21.76;53.70;101416.16;5261967;28;20040;-73
2022/10/16 10:21:02;;;;;;;9.88;2.65;;;;;;;21.90;54.62;101428.16;5275354;28;20029;-73
2022/10/16 10:23:37;;;;;;;8.50;2.10;;;;;;;21.73;54.79;101435.94;5256733;28;20697;-70
2022/10/16 10:26:08;;;;;;;7.53;2.55;;;;;;;20.75;56.73;101439.94;5277179;28;20631;-72
2022/10/16 10:28:51;;;;;;;9.45;1.88;;;;;;;21.00;58.34;101438.47;5272916;28;20028;-74
2022/10/16 10:31:30;;;;;;;8.45;2.50;;;;;;;21.00;57.75;101442.97;5274011;28;20035;-72
2022/10/16 10:34:27;;;;;;;6.53;1.98;;;;;;;20.87;59.06;101451.25;5240129;28;20052;-72
2022/10/16 10:37:29;;;;;;;9.13;2.13;;;;;;;21.05;57.30;101450.53;5253513;28;20097;-75
2022/10/16 10:40:38;;;;;;;10.02;2.45;;;;;;;21.02;57.45;101441.84;5255694;28;20629;-73
2022/10/16 10:43:39;;;;;;;12.82;3.22;;;;;;;20.90;56.14;101448.28;5256065;28;20032;-74
2022/10/16 10:46:23;;;;;;;10.75;2.65;;;;;;;20.31;58.16;101444.81;5269338;28;20027;-73
2022/10/16 10:49:06;;;;;;;9.75;1.85;;;;;;;20.18;58.47;101444.25;5295997;28;20028;-73
2022/10/16 10:52:02;;;;;;;8.88;2.40;;;;;;;20.02;56.50;101456.25;5271827;28;20056;-70
2022/10/16 10:54:54;;;;;;;8.65;2.22;;;;;;;19.94;57.43;101456.97;5273990;28;20043;-70
2022/10/16 10:57:32;;;;;;;13.13;2.55;;;;;;;19.51;58.69;101458.16;5271942;28;20025;-71
2022/10/16 11:00:48;;;;;;;9.65;2.67;;;;;;;19.97;59.60;101463.00;5274195;28;20029;-69
2022/10/16 11:03:44;;;;;;;11.55;3.42;;;;;;;20.00;59.06;101454.72;5228200;28;20182;-70
2022/10/16 11:06:24;;;;;;;10.73;2.72;;;;;;;19.82;58.62;101448.28;5273244;28;20105;-71
2022/10/16 11:09:17;;;;;;;11.35;2.47;;;;;;;20.27;57.55;101458.53;5275062;28;20106;-71
2022/10/16 11:12:05;;;;;;;13.70;2.97;;;;;;;20.26;57.19;101456.84;5274859;28;20023;-71
2022/10/16 11:14:42;;;;;;;9.43;2.25;;;;;;;19.86;59.07;101455.97;5254262;28;20378;-71
2022/10/16 11:17:19;;;;;;;15.88;3.17;;;;;;;20.12;57.97;101455.47;5272809;28;20020;-71
2022/10/16 11:19:56;;;;;;;9.48;2.70;;;;;;;20.01;57.39;101462.56;5257560;28;20037;-70
2022/10/16 11:22:39;;;;;;;15.02;3.53;;;;;;;20.05;59.47;101465.81;5257239;28;20094;-71
2022/10/16 11:25:22;;;;;;;12.00;2.47;;;;;;;19.76;59.30;101453.31;5275513;28;20040;-71
2022/10/16 11:28:10;;;;;;;12.45;2.72;;;;;;;20.26;58.27;101463.00;5275102;28;20031;-71
2022/10/16 11:30:53;;;;;;;14.18;2.63;;;;;;;20.44;57.85;101462.28;5274180;28;20036;-71
2022/10/16 11:33:39;;;;;;;11.70;2.88;;;;;;;20.52;57.50;101462.41;5276970;28;20036;-71
2022/10/16 11:36:19;;;;;;;9.70;2.38;;;;;;;20.43;57.96;101463.25;5295861;28;20035;-71
2022/10/16 11:39:18;;;;;;;11.95;2.30;;;;;;;20.31;57.64;101463.44;5277574;28;20643;-71
2022/10/16 11:41:54;;;;;;;12.50;2.83;;;;;;;20.62;56.43;101458.88;5296593;28;20085;-71
2022/10/16 11:44:44;;;;;;;9.30;2.70;;;;;;;20.60;56.55;101474.16;5296265;28;20032;-71
2022/10/16 11:47:34;;;;;;;10.27;2.00;;;;;;;20.48;56.30;101463.69;5277042;28;20083;-71
2022/10/16 11:50:29;;;;;;;10.48;1.90;;;;;;;20.90;56.90;101464.28;5275933;28;20472;-71
2022/10/16 11:53:22;;;;;;;6.47;2.05;;;;;;;20.78;52.44;101464.47;5274867;28;20024;-71
2022/10/16 11:55:53;;;;;;;10.15;2.40;;;;;;;20.51;54.51;101475.88;5275262;28;20036;-71
2022/10/16 11:58:54;;;;;;;7.75;2.60;;;;;;;20.54;55.49;101479.06;5274905;28;20461;-71
2022/10/16 12:01:38;;;;;;;9.10;2.33;;;;;;;20.44;53.84;101486.22;5256225;28;20107;-72